sensor_id;sensor_type;location;lat;lon;timestamp;temperature;humidity
30572;DHT22;17348;50.948;10.696;2022-11-20T00:00:49;-5.30;99.90
30572;DHT22;17348;50.948;10.696;2022-11-20T00:03:54;-5.20;99.90
30572;DHT22;17348;50.948;10.696;2022-11-20T00:06:57;-5.20;99.90
30572;DHT22;17348;50.948;10.696;2022-11-20T00:09:59;-5.30;99.90
30572;DHT22;17348;50.948;10.696;2022-11-20T00:13:01;-5.30;99.90
30572;DHT22;17348;50.948;10.696;2022-11-20T00:16:05;-5.40;99.90
30572;DHT22;17348;50.948;10.696;2022-11-20T00:19:09;-5.40;99.90
30572;DHT22;17348;50.948;10.696;2022-11-20T00:22:12;-5.40;99.90
30572;DHT22;17348;50.948;10.696;2022-11-20T00:25:14;-5.40;99.90
30572;DHT22;17348;50.948;10.696;2022-11-20T00:28:16;-5.50;99.90
30572;DHT22;17348;50.948;10.696;2022-11-20T00:31:19;-5.50;99.90
30572;DHT22;17348;50.948;10.696;2022-11-20T00:34:22;-5.50;99.90
30572;DHT22;17348;50.948;10.696;2022-11-20T00:37:25;-5.50;99.90
30572;DHT22;17348;50.948;10.696;2022-11-20T00:40:27;-5.50;99.90
30572;DHT22;17348;50.948;10.696;2022-11-20T00:43:30;-5.50;99.90
30572;DHT22;17348;50.948;10.696;2022-11-20T00:46:32;-5.60;99.90
30572;DHT22;17348;50.948;10.696;2022-11-20T00:49:36;-5.60;99.90
30572;DHT22;17348;50.948;10.696;2022-11-20T00:52:39;-5.70;99.90
30572;DHT22;17348;50.948;10.696;2022-11-20T00:55:41;-5.70;99.90
30572;DHT22;17348;50.948;10.696;2022-11-20T00:58:45;-5.60;99.90
30572;DHT22;17348;50.948;10.696;2022-11-20T01:01:47;-5.70;99.90
30572;DHT22;17348;50.948;10.696;2022-11-20T01:04:51;-5.60;99.90
30572;DHT22;17348;50.948;10.696;2022-11-20T01:07:53;-5.70;99.90
30572;DHT22;17348;50.948;10.696;2022-11-20T01:10:59;-5.70;99.90
30572;DHT22;17348;50.948;10.696;2022-11-20T01:14:03;-5.70;99.90
30572;DHT22;17348;50.948;10.696;2022-11-20T01:17:06;-5.60;99.90
30572;DHT22;17348;50.948;10.696;2022-11-20T01:20:10;-5.70;99.90
30572;DHT22;17348;50.948;10.696;2022-11-20T01:23:13;-5.70;99.90
30572;DHT22;17348;50.948;10.696;2022-11-20T01:26:18;-5.70;99.90
30572;DHT22;17348;50.948;10.696;2022-11-20T01:29:22;-5.70;99.90
30572;DHT22;17348;50.948;10.696;2022-11-20T01:32:25;-5.70;99.90
30572;DHT22;17348;50.948;10.696;2022-11-20T01:35:28;-5.60;99.90
30572;DHT22;17348;50.948;10.696;2022-11-20T01:38:30;-5.60;99.90
30572;DHT22;17348;50.948;10.696;2022-11-20T01:41:34;-5.60;99.90
30572;DHT22;17348;50.948;10.696;2022-11-20T01:44:55;-5.60;99.90
30572;DHT22;17348;50.948;10.696;2022-11-20T01:47:58;-5.60;99.90
30572;DHT22;17348;50.948;10.696;2022-11-20T01:51:03;-5.60;99.90
30572;DHT22;17348;50.948;10.696;2022-11-20T01:54:08;-5.60;99.90
30572;DHT22;17348;50.948;10.696;2022-11-20T01:57:13;-5.60;99.90
30572;DHT22;17348;50.948;10.696;2022-11-20T02:00:19;-5.70;99.90
30572;DHT22;17348;50.948;10.696;2022-11-20T02:03:22;-5.80;99.90
30572;DHT22;17348;50.948;10.696;2022-11-20T02:06:32;-5.80;99.90
30572;DHT22;17348;50.948;10.696;2022-11-20T02:09:37;-5.80;99.90
30572;DHT22;17348;50.948;10.696;2022-11-20T02:12:39;-5.80;99.90
30572;DHT22;17348;50.948;10.696;2022-11-20T02:15:59;-5.80;99.90
30572;DHT22;17348;50.948;10.696;2022-11-20T02:19:05;-5.90;99.90
30572;DHT22;17348;50.948;10.696;2022-11-20T02:22:16;-6.00;99.90
30572;DHT22;17348;50.948;10.696;2022-11-20T02:25:23;-6.00;99.90
30572;DHT22;17348;50.948;10.696;2022-11-20T02:28:27;-6.00;99.90
30572;DHT22;17348;50.948;10.696;2022-11-20T02:31:35;-6.10;99.90
30572;DHT22;17348;50.948;10.696;2022-11-20T02:34:38;-6.10;99.90
30572;DHT22;17348;50.948;10.696;2022-11-20T02:37:40;-6.10;99.90
30572;DHT22;17348;50.948;10.696;2022-11-20T02:40:44;-6.10;99.90
30572;DHT22;17348;50.948;10.696;2022-11-20T02:43:46;-6.10;99.90
30572;DHT22;17348;50.948;10.696;2022-11-20T02:46:49;-6.10;99.90
30572;DHT22;17348;50.948;10.696;2022-11-20T02:49:51;-6.10;99.90
30572;DHT22;17348;50.948;10.696;2022-11-20T02:52:54;-6.10;99.90
30572;DHT22;17348;50.948;10.696;2022-11-20T02:55:57;-6.10;99.90
30572;DHT22;17348;50.948;10.696;2022-11-20T02:59:01;-6.10;99.90
30572;DHT22;17348;50.948;10.696;2022-11-20T03:02:04;-6.00;99.90
30572;DHT22;17348;50.948;10.696;2022-11-20T03:05:07;-6.00;99.90
30572;DHT22;17348;50.948;10.696;2022-11-20T03:08:09;-6.00;99.90
30572;DHT22;17348;50.948;10.696;2022-11-20T03:11:13;-6.00;99.90
30572;DHT22;17348;50.948;10.696;2022-11-20T03:14:15;-6.00;99.90
30572;DHT22;17348;50.948;10.696;2022-11-20T03:17:17;-6.00;99.90
30572;DHT22;17348;50.948;10.696;2022-11-20T03:20:20;-6.00;99.90
30572;DHT22;17348;50.948;10.696;2022-11-20T03:23:22;-6.00;99.90
30572;DHT22;17348;50.948;10.696;2022-11-20T03:26:26;-6.00;99.90
30572;DHT22;17348;50.948;10.696;2022-11-20T03:29:29;-6.00;99.90
30572;DHT22;17348;50.948;10.696;2022-11-20T03:32:32;-6.00;99.90
30572;DHT22;17348;50.948;10.696;2022-11-20T03:35:34;-6.00;99.90
30572;DHT22;17348;50.948;10.696;2022-11-20T03:38:36;-6.00;99.90
30572;DHT22;17348;50.948;10.696;2022-11-20T03:41:41;-6.00;99.90
30572;DHT22;17348;50.948;10.696;2022-11-20T03:44:44;-6.00;99.90
30572;DHT22;17348;50.948;10.696;2022-11-20T03:47:47;-6.00;99.90
30572;DHT22;17348;50.948;10.696;2022-11-20T03:50:49;-6.10;99.90
30572;DHT22;17348;50.948;10.696;2022-11-20T03:53:53;-6.10;99.90
30572;DHT22;17348;50.948;10.696;2022-11-20T03:56:57;-6.20;99.90
30572;DHT22;17348;50.948;10.696;2022-11-20T04:00:00;-6.20;99.90
30572;DHT22;17348;50.948;10.696;2022-11-20T04:03:02;-6.30;99.90
30572;DHT22;17348;50.948;10.696;2022-11-20T04:06:09;-6.30;99.90
30572;DHT22;17348;50.948;10.696;2022-11-20T04:09:13;-6.20;99.90
30572;DHT22;17348;50.948;10.696;2022-11-20T04:12:18;-6.20;99.90
30572;DHT22;17348;50.948;10.696;2022-11-20T04:15:20;-6.30;99.90
30572;DHT22;17348;50.948;10.696;2022-11-20T04:18:22;-6.30;99.90
30572;DHT22;17348;50.948;10.696;2022-11-20T04:21:25;-6.30;99.90
30572;DHT22;17348;50.948;10.696;2022-11-20T04:24:28;-6.30;99.90
30572;DHT22;17348;50.948;10.696;2022-11-20T04:27:31;-6.30;99.90
30572;DHT22;17348;50.948;10.696;2022-11-20T04:30:34;-6.20;99.90
30572;DHT22;17348;50.948;10.696;2022-11-20T04:33:37;-6.20;99.90
30572;DHT22;17348;50.948;10.696;2022-11-20T04:36:39;-6.10;99.90
30572;DHT22;17348;50.948;10.696;2022-11-20T04:39:43;-6.00;99.90
30572;DHT22;17348;50.948;10.696;2022-11-20T04:42:47;-5.90;99.90
30572;DHT22;17348;50.948;10.696;2022-11-20T04:45:50;-5.80;99.90
30572;DHT22;17348;50.948;10.696;2022-11-20T04:48:53;-5.70;99.90
30572;DHT22;17348;50.948;10.696;2022-11-20T04:51:55;-5.70;99.90
30572;DHT22;17348;50.948;10.696;2022-11-20T04:54:57;-5.60;99.90
30572;DHT22;17348;50.948;10.696;2022-11-20T04:58:01;-5.40;99.90
30572;DHT22;17348;50.948;10.696;2022-11-20T05:01:10;-5.30;99.90
30572;DHT22;17348;50.948;10.696;2022-11-20T05:04:13;-5.30;99.90
30572;DHT22;17348;50.948;10.696;2022-11-20T05:07:15;-5.20;99.90
30572;DHT22;17348;50.948;10.696;2022-11-20T05:10:18;-5.20;99.90
30572;DHT22;17348;50.948;10.696;2022-11-20T05:13:21;-5.10;99.90
30572;DHT22;17348;50.948;10.696;2022-11-20T05:16:24;-5.10;99.90
30572;DHT22;17348;50.948;10.696;2022-11-20T05:19:27;-5.00;99.90
30572;DHT22;17348;50.948;10.696;2022-11-20T05:22:29;-4.90;99.90
30572;DHT22;17348;50.948;10.696;2022-11-20T05:25:31;-4.80;99.90
30572;DHT22;17348;50.948;10.696;2022-11-20T05:28:35;-4.80;99.90
30572;DHT22;17348;50.948;10.696;2022-11-20T05:34:41;-4.60;99.90
30572;DHT22;17348;50.948;10.696;2022-11-20T05:37:43;-4.50;99.90
30572;DHT22;17348;50.948;10.696;2022-11-20T05:40:46;-4.50;99.90
30572;DHT22;17348;50.948;10.696;2022-11-20T05:43:50;-4.40;99.90
30572;DHT22;17348;50.948;10.696;2022-11-20T05:46:52;-4.40;99.90
30572;DHT22;17348;50.948;10.696;2022-11-20T05:49:54;-4.30;99.90
30572;DHT22;17348;50.948;10.696;2022-11-20T05:52:58;-4.20;99.90
30572;DHT22;17348;50.948;10.696;2022-11-20T05:56:01;-4.10;99.90
30572;DHT22;17348;50.948;10.696;2022-11-20T05:59:05;-4.10;99.90
30572;DHT22;17348;50.948;10.696;2022-11-20T06:02:07;-4.10;99.90
30572;DHT22;17348;50.948;10.696;2022-11-20T06:05:09;-4.00;99.90
30572;DHT22;17348;50.948;10.696;2022-11-20T06:08:12;-3.90;99.90
30572;DHT22;17348;50.948;10.696;2022-11-20T06:11:15;-4.00;99.90
30572;DHT22;17348;50.948;10.696;2022-11-20T06:14:19;-3.90;99.90
30572;DHT22;17348;50.948;10.696;2022-11-20T06:17:21;-3.90;99.90
30572;DHT22;17348;50.948;10.696;2022-11-20T06:20:24;-3.90;99.90
30572;DHT22;17348;50.948;10.696;2022-11-20T06:23:28;-3.90;99.90
30572;DHT22;17348;50.948;10.696;2022-11-20T06:26:30;-3.90;99.90
30572;DHT22;17348;50.948;10.696;2022-11-20T06:29:34;-3.90;99.90
30572;DHT22;17348;50.948;10.696;2022-11-20T06:32:41;-3.80;99.90
30572;DHT22;17348;50.948;10.696;2022-11-20T06:35:44;-3.70;99.90
30572;DHT22;17348;50.948;10.696;2022-11-20T06:38:46;-3.80;99.90
30572;DHT22;17348;50.948;10.696;2022-11-20T06:41:49;-3.70;99.90
30572;DHT22;17348;50.948;10.696;2022-11-20T06:44:52;-3.60;99.90
30572;DHT22;17348;50.948;10.696;2022-11-20T06:47:57;-3.60;99.90
30572;DHT22;17348;50.948;10.696;2022-11-20T06:50:59;-3.50;99.90
30572;DHT22;17348;50.948;10.696;2022-11-20T06:54:02;-3.50;99.90
30572;DHT22;17348;50.948;10.696;2022-11-20T06:57:04;-3.50;99.90
30572;DHT22;17348;50.948;10.696;2022-11-20T07:00:09;-3.40;99.90
30572;DHT22;17348;50.948;10.696;2022-11-20T07:03:12;-3.40;99.90
30572;DHT22;17348;50.948;10.696;2022-11-20T07:06:14;-3.30;99.90
30572;DHT22;17348;50.948;10.696;2022-11-20T07:09:17;-3.20;99.90
30572;DHT22;17348;50.948;10.696;2022-11-20T07:12:19;-3.10;99.90
30572;DHT22;17348;50.948;10.696;2022-11-20T07:15:24;-3.20;99.90
30572;DHT22;17348;50.948;10.696;2022-11-20T07:18:26;-3.20;99.90
30572;DHT22;17348;50.948;10.696;2022-11-20T07:21:29;-3.10;99.90
30572;DHT22;17348;50.948;10.696;2022-11-20T07:24:31;-3.10;99.90
30572;DHT22;17348;50.948;10.696;2022-11-20T07:27:33;-3.10;99.90
30572;DHT22;17348;50.948;10.696;2022-11-20T07:30:37;-3.00;99.90
30572;DHT22;17348;50.948;10.696;2022-11-20T07:33:40;-2.90;99.90
30572;DHT22;17348;50.948;10.696;2022-11-20T07:36:42;-2.80;99.90
30572;DHT22;17348;50.948;10.696;2022-11-20T07:39:44;-2.80;99.90
30572;DHT22;17348;50.948;10.696;2022-11-20T07:42:49;-2.70;99.90
30572;DHT22;17348;50.948;10.696;2022-11-20T07:45:54;-2.60;99.90
30572;DHT22;17348;50.948;10.696;2022-11-20T07:48:57;-2.60;99.90
30572;DHT22;17348;50.948;10.696;2022-11-20T07:51:59;-2.60;99.90
30572;DHT22;17348;50.948;10.696;2022-11-20T07:55:02;-2.50;99.90
30572;DHT22;17348;50.948;10.696;2022-11-20T07:58:04;-2.40;99.90
30572;DHT22;17348;50.948;10.696;2022-11-20T08:01:08;-2.30;99.90
30572;DHT22;17348;50.948;10.696;2022-11-20T08:04:10;-2.20;99.90
30572;DHT22;17348;50.948;10.696;2022-11-20T08:07:13;-2.10;99.90
30572;DHT22;17348;50.948;10.696;2022-11-20T08:10:16;-2.10;99.90
30572;DHT22;17348;50.948;10.696;2022-11-20T08:13:18;-2.10;99.90
30572;DHT22;17348;50.948;10.696;2022-11-20T08:16:40;-2.00;99.90
30572;DHT22;17348;50.948;10.696;2022-11-20T08:19:43;-1.90;99.90
30572;DHT22;17348;50.948;10.696;2022-11-20T08:22:45;-1.80;99.90
30572;DHT22;17348;50.948;10.696;2022-11-20T08:25:49;-1.70;99.90
30572;DHT22;17348;50.948;10.696;2022-11-20T08:28:53;-1.70;99.90
30572;DHT22;17348;50.948;10.696;2022-11-20T08:31:57;-1.60;99.90
30572;DHT22;17348;50.948;10.696;2022-11-20T08:35:00;-1.60;99.90
30572;DHT22;17348;50.948;10.696;2022-11-20T08:38:02;-1.60;99.90
30572;DHT22;17348;50.948;10.696;2022-11-20T08:41:05;-1.50;99.90
30572;DHT22;17348;50.948;10.696;2022-11-20T08:44:30;-1.40;99.90
30572;DHT22;17348;50.948;10.696;2022-11-20T08:47:34;-1.40;99.90
30572;DHT22;17348;50.948;10.696;2022-11-20T08:50:36;-1.30;99.90
30572;DHT22;17348;50.948;10.696;2022-11-20T08:53:39;-1.20;99.90
30572;DHT22;17348;50.948;10.696;2022-11-20T08:56:41;-1.20;99.90
30572;DHT22;17348;50.948;10.696;2022-11-20T08:59:43;-1.10;99.90
30572;DHT22;17348;50.948;10.696;2022-11-20T09:02:48;-1.10;99.90
30572;DHT22;17348;50.948;10.696;2022-11-20T09:05:50;-1.00;99.90
30572;DHT22;17348;50.948;10.696;2022-11-20T09:08:52;-1.00;99.90
30572;DHT22;17348;50.948;10.696;2022-11-20T09:11:55;-1.00;99.90
30572;DHT22;17348;50.948;10.696;2022-11-20T09:14:57;-0.80;99.90
30572;DHT22;17348;50.948;10.696;2022-11-20T09:18:02;-0.70;99.90
30572;DHT22;17348;50.948;10.696;2022-11-20T09:21:09;-0.60;99.90
30572;DHT22;17348;50.948;10.696;2022-11-20T09:24:12;-0.40;99.90
30572;DHT22;17348;50.948;10.696;2022-11-20T09:27:14;-0.30;99.90
30572;DHT22;17348;50.948;10.696;2022-11-20T09:30:20;-0.20;99.90
30572;DHT22;17348;50.948;10.696;2022-11-20T09:33:24;0.00;99.90
30572;DHT22;17348;50.948;10.696;2022-11-20T09:36:26;0.00;99.90
30572;DHT22;17348;50.948;10.696;2022-11-20T09:39:29;0.10;99.90
30572;DHT22;17348;50.948;10.696;2022-11-20T09:42:37;0.10;99.90
30572;DHT22;17348;50.948;10.696;2022-11-20T09:45:50;0.10;99.90
30572;DHT22;17348;50.948;10.696;2022-11-20T09:49:05;0.20;99.90
30572;DHT22;17348;50.948;10.696;2022-11-20T09:52:19;0.20;99.90
30572;DHT22;17348;50.948;10.696;2022-11-20T09:55:23;0.30;99.90
30572;DHT22;17348;50.948;10.696;2022-11-20T09:58:31;0.40;99.90
30572;DHT22;17348;50.948;10.696;2022-11-20T10:01:36;0.50;99.90
30572;DHT22;17348;50.948;10.696;2022-11-20T10:04:47;0.50;99.90
30572;DHT22;17348;50.948;10.696;2022-11-20T10:07:53;0.50;99.90
30572;DHT22;17348;50.948;10.696;2022-11-20T10:11:02;0.60;99.90
30572;DHT22;17348;50.948;10.696;2022-11-20T10:14:16;0.60;99.90
30572;DHT22;17348;50.948;10.696;2022-11-20T10:17:27;0.80;99.90
30572;DHT22;17348;50.948;10.696;2022-11-20T10:20:40;1.00;99.90
30572;DHT22;17348;50.948;10.696;2022-11-20T10:30:43;1.30;99.90
30572;DHT22;17348;50.948;10.696;2022-11-20T10:33:48;1.30;99.90
30572;DHT22;17348;50.948;10.696;2022-11-20T10:36:59;1.20;99.90
30572;DHT22;17348;50.948;10.696;2022-11-20T10:40:14;1.00;99.90
30572;DHT22;17348;50.948;10.696;2022-11-20T10:43:27;0.90;99.90
30572;DHT22;17348;50.948;10.696;2022-11-20T10:46:38;0.80;99.90
30572;DHT22;17348;50.948;10.696;2022-11-20T10:49:42;0.70;99.90
30572;DHT22;17348;50.948;10.696;2022-11-20T10:52:56;0.60;99.90
30572;DHT22;17348;50.948;10.696;2022-11-20T10:56:09;0.60;99.90
30572;DHT22;17348;50.948;10.696;2022-11-20T10:59:34;0.60;99.90
30572;DHT22;17348;50.948;10.696;2022-11-20T11:02:41;0.60;99.90
30572;DHT22;17348;50.948;10.696;2022-11-20T11:05:49;0.60;99.90
30572;DHT22;17348;50.948;10.696;2022-11-20T11:08:58;0.60;99.90
30572;DHT22;17348;50.948;10.696;2022-11-20T11:12:00;0.70;99.90
30572;DHT22;17348;50.948;10.696;2022-11-20T11:15:05;0.70;99.90
30572;DHT22;17348;50.948;10.696;2022-11-20T11:18:09;0.70;99.90
30572;DHT22;17348;50.948;10.696;2022-11-20T11:21:12;0.70;99.90
30572;DHT22;17348;50.948;10.696;2022-11-20T11:24:20;0.80;99.90
30572;DHT22;17348;50.948;10.696;2022-11-20T11:27:25;0.80;99.90
30572;DHT22;17348;50.948;10.696;2022-11-20T11:30:29;0.80;99.90
30572;DHT22;17348;50.948;10.696;2022-11-20T11:33:33;0.90;99.90
30572;DHT22;17348;50.948;10.696;2022-11-20T11:36:35;0.90;99.90
30572;DHT22;17348;50.948;10.696;2022-11-20T11:39:41;1.00;99.90
30572;DHT22;17348;50.948;10.696;2022-11-20T11:42:46;1.00;99.90
30572;DHT22;17348;50.948;10.696;2022-11-20T11:45:53;1.00;99.90
30572;DHT22;17348;50.948;10.696;2022-11-20T11:48:57;1.10;99.90
30572;DHT22;17348;50.948;10.696;2022-11-20T11:52:04;1.20;99.90
30572;DHT22;17348;50.948;10.696;2022-11-20T11:55:14;1.30;99.90
30572;DHT22;17348;50.948;10.696;2022-11-20T11:58:28;1.30;99.90
30572;DHT22;17348;50.948;10.696;2022-11-20T12:01:41;1.30;99.90
30572;DHT22;17348;50.948;10.696;2022-11-20T12:04:52;1.30;99.90
30572;DHT22;17348;50.948;10.696;2022-11-20T12:08:00;1.30;99.90
30572;DHT22;17348;50.948;10.696;2022-11-20T12:11:12;1.30;99.90
30572;DHT22;17348;50.948;10.696;2022-11-20T12:14:16;1.40;99.90
30572;DHT22;17348;50.948;10.696;2022-11-20T12:17:20;1.40;99.90
30572;DHT22;17348;50.948;10.696;2022-11-20T12:20:26;1.50;99.90
30572;DHT22;17348;50.948;10.696;2022-11-20T12:23:35;1.50;99.90
30572;DHT22;17348;50.948;10.696;2022-11-20T12:26:57;1.60;99.90
30572;DHT22;17348;50.948;10.696;2022-11-20T12:30:07;1.50;99.90
30572;DHT22;17348;50.948;10.696;2022-11-20T12:33:29;1.50;99.90
30572;DHT22;17348;50.948;10.696;2022-11-20T12:36:44;1.50;99.90
30572;DHT22;17348;50.948;10.696;2022-11-20T12:39:50;1.60;99.90
30572;DHT22;17348;50.948;10.696;2022-11-20T12:43:01;1.60;99.90
30572;DHT22;17348;50.948;10.696;2022-11-20T12:46:27;1.60;99.90
30572;DHT22;17348;50.948;10.696;2022-11-20T12:49:37;1.70;99.90
30572;DHT22;17348;50.948;10.696;2022-11-20T12:52:47;1.80;99.90
30572;DHT22;17348;50.948;10.696;2022-11-20T12:55:56;1.80;99.90
30572;DHT22;17348;50.948;10.696;2022-11-20T12:59:16;1.80;99.90
30572;DHT22;17348;50.948;10.696;2022-11-20T13:02:25;1.80;99.90
30572;DHT22;17348;50.948;10.696;2022-11-20T13:05:37;1.70;99.90
30572;DHT22;17348;50.948;10.696;2022-11-20T13:08:49;1.60;99.90
30572;DHT22;17348;50.948;10.696;2022-11-20T13:12:00;1.70;99.90
30572;DHT22;17348;50.948;10.696;2022-11-20T13:15:14;1.80;99.90
30572;DHT22;17348;50.948;10.696;2022-11-20T13:18:20;1.80;99.90
30572;DHT22;17348;50.948;10.696;2022-11-20T13:21:36;1.90;99.90
30572;DHT22;17348;50.948;10.696;2022-11-20T13:24:39;1.90;99.90
30572;DHT22;17348;50.948;10.696;2022-11-20T13:27:52;1.90;99.90
30572;DHT22;17348;50.948;10.696;2022-11-20T13:30:58;2.00;99.90
30572;DHT22;17348;50.948;10.696;2022-11-20T13:34:04;1.90;99.90
30572;DHT22;17348;50.948;10.696;2022-11-20T13:37:27;1.90;99.90
30572;DHT22;17348;50.948;10.696;2022-11-20T13:40:30;1.90;99.90
30572;DHT22;17348;50.948;10.696;2022-11-20T13:43:35;1.90;99.90
30572;DHT22;17348;50.948;10.696;2022-11-20T13:46:41;1.90;99.90
30572;DHT22;17348;50.948;10.696;2022-11-20T13:49:45;1.90;99.90
30572;DHT22;17348;50.948;10.696;2022-11-20T13:52:55;1.90;99.90
30572;DHT22;17348;50.948;10.696;2022-11-20T13:56:03;1.90;99.90
30572;DHT22;17348;50.948;10.696;2022-11-20T13:59:13;1.80;99.90
30572;DHT22;17348;50.948;10.696;2022-11-20T14:02:26;1.70;99.90
30572;DHT22;17348;50.948;10.696;2022-11-20T14:05:32;1.70;99.90
30572;DHT22;17348;50.948;10.696;2022-11-20T14:08:39;1.60;99.90
30572;DHT22;17348;50.948;10.696;2022-11-20T14:11:46;1.60;99.90
30572;DHT22;17348;50.948;10.696;2022-11-20T14:14:51;1.50;99.90
30572;DHT22;17348;50.948;10.696;2022-11-20T14:17:56;1.50;99.90
30572;DHT22;17348;50.948;10.696;2022-11-20T14:21:00;1.50;99.90
30572;DHT22;17348;50.948;10.696;2022-11-20T14:24:06;1.40;99.90
30572;DHT22;17348;50.948;10.696;2022-11-20T14:27:19;1.40;99.90
30572;DHT22;17348;50.948;10.696;2022-11-20T14:30:24;1.50;99.90
30572;DHT22;17348;50.948;10.696;2022-11-20T14:33:37;1.50;99.90
30572;DHT22;17348;50.948;10.696;2022-11-20T14:36:40;1.50;99.90
30572;DHT22;17348;50.948;10.696;2022-11-20T14:39:47;1.50;99.90
30572;DHT22;17348;50.948;10.696;2022-11-20T14:42:50;1.50;99.90
30572;DHT22;17348;50.948;10.696;2022-11-20T14:45:57;1.50;99.90
30572;DHT22;17348;50.948;10.696;2022-11-20T14:49:02;1.40;99.90
30572;DHT22;17348;50.948;10.696;2022-11-20T14:52:14;1.40;99.90
30572;DHT22;17348;50.948;10.696;2022-11-20T14:55:25;1.40;99.90
30572;DHT22;17348;50.948;10.696;2022-11-20T14:58:30;1.30;99.90
30572;DHT22;17348;50.948;10.696;2022-11-20T15:01:34;1.30;99.90
30572;DHT22;17348;50.948;10.696;2022-11-20T15:04:46;1.20;99.90
30572;DHT22;17348;50.948;10.696;2022-11-20T15:07:51;1.10;99.90
30572;DHT22;17348;50.948;10.696;2022-11-20T15:10:54;1.00;99.90
30572;DHT22;17348;50.948;10.696;2022-11-20T15:13:59;0.90;99.90
30572;DHT22;17348;50.948;10.696;2022-11-20T15:17:07;0.90;99.90
30572;DHT22;17348;50.948;10.696;2022-11-20T15:20:15;0.80;99.90
30572;DHT22;17348;50.948;10.696;2022-11-20T15:23:19;0.80;99.90
30572;DHT22;17348;50.948;10.696;2022-11-20T15:26:24;0.70;99.90
30572;DHT22;17348;50.948;10.696;2022-11-20T15:29:27;0.60;99.90
30572;DHT22;17348;50.948;10.696;2022-11-20T15:32:30;0.60;99.90
30572;DHT22;17348;50.948;10.696;2022-11-20T15:35:33;0.50;99.90
30572;DHT22;17348;50.948;10.696;2022-11-20T15:38:36;0.40;99.90
30572;DHT22;17348;50.948;10.696;2022-11-20T15:41:39;0.40;99.90
30572;DHT22;17348;50.948;10.696;2022-11-20T15:44:41;0.30;99.90
30572;DHT22;17348;50.948;10.696;2022-11-20T15:47:43;0.20;99.90
30572;DHT22;17348;50.948;10.696;2022-11-20T15:50:51;0.20;99.90
30572;DHT22;17348;50.948;10.696;2022-11-20T15:53:55;0.20;99.90
30572;DHT22;17348;50.948;10.696;2022-11-20T15:56:57;0.20;99.90
30572;DHT22;17348;50.948;10.696;2022-11-20T16:00:01;0.20;99.90
30572;DHT22;17348;50.948;10.696;2022-11-20T16:03:04;0.30;99.90
30572;DHT22;17348;50.948;10.696;2022-11-20T16:06:08;0.40;99.90
30572;DHT22;17348;50.948;10.696;2022-11-20T16:09:10;0.40;99.90
30572;DHT22;17348;50.948;10.696;2022-11-20T16:12:13;0.50;99.90
30572;DHT22;17348;50.948;10.696;2022-11-20T16:15:35;0.50;99.90
30572;DHT22;17348;50.948;10.696;2022-11-20T16:18:49;0.50;99.90
30572;DHT22;17348;50.948;10.696;2022-11-20T16:21:53;0.60;99.90
30572;DHT22;17348;50.948;10.696;2022-11-20T16:24:55;0.70;99.90
30572;DHT22;17348;50.948;10.696;2022-11-20T16:27:57;0.60;99.90
30572;DHT22;17348;50.948;10.696;2022-11-20T16:31:08;0.70;99.90
30572;DHT22;17348;50.948;10.696;2022-11-20T16:34:10;0.70;99.90
30572;DHT22;17348;50.948;10.696;2022-11-20T16:37:14;0.80;99.90
30572;DHT22;17348;50.948;10.696;2022-11-20T16:40:16;0.80;99.90
30572;DHT22;17348;50.948;10.696;2022-11-20T16:43:19;0.80;99.90
30572;DHT22;17348;50.948;10.696;2022-11-20T16:46:22;0.90;99.90
30572;DHT22;17348;50.948;10.696;2022-11-20T16:49:25;1.00;99.90
30572;DHT22;17348;50.948;10.696;2022-11-20T16:52:29;1.10;99.90
30572;DHT22;17348;50.948;10.696;2022-11-20T16:55:32;1.10;99.90
30572;DHT22;17348;50.948;10.696;2022-11-20T16:58:34;1.10;99.90
30572;DHT22;17348;50.948;10.696;2022-11-20T17:01:39;1.10;99.90
30572;DHT22;17348;50.948;10.696;2022-11-20T17:04:42;1.20;99.90
30572;DHT22;17348;50.948;10.696;2022-11-20T17:07:46;1.20;99.90
30572;DHT22;17348;50.948;10.696;2022-11-20T17:10:48;1.20;99.90
30572;DHT22;17348;50.948;10.696;2022-11-20T17:13:51;1.30;99.90
30572;DHT22;17348;50.948;10.696;2022-11-20T17:16:54;1.30;99.90
30572;DHT22;17348;50.948;10.696;2022-11-20T17:19:56;1.30;99.90
30572;DHT22;17348;50.948;10.696;2022-11-20T17:23:00;1.30;99.90
30572;DHT22;17348;50.948;10.696;2022-11-20T17:26:03;1.30;99.90
30572;DHT22;17348;50.948;10.696;2022-11-20T17:29:08;1.30;99.90
30572;DHT22;17348;50.948;10.696;2022-11-20T17:32:11;1.30;99.90
30572;DHT22;17348;50.948;10.696;2022-11-20T17:35:14;1.30;99.90
30572;DHT22;17348;50.948;10.696;2022-11-20T17:38:18;1.40;99.90
30572;DHT22;17348;50.948;10.696;2022-11-20T17:41:21;1.40;99.90
30572;DHT22;17348;50.948;10.696;2022-11-20T17:44:25;1.40;99.90
30572;DHT22;17348;50.948;10.696;2022-11-20T17:47:27;1.40;99.90
30572;DHT22;17348;50.948;10.696;2022-11-20T17:50:29;1.40;99.90
30572;DHT22;17348;50.948;10.696;2022-11-20T17:53:35;1.50;99.90
30572;DHT22;17348;50.948;10.696;2022-11-20T17:56:38;1.50;99.90
30572;DHT22;17348;50.948;10.696;2022-11-20T17:59:57;1.50;99.90
30572;DHT22;17348;50.948;10.696;2022-11-20T18:03:00;1.50;99.90
30572;DHT22;17348;50.948;10.696;2022-11-20T18:06:13;1.50;99.90
30572;DHT22;17348;50.948;10.696;2022-11-20T18:09:18;1.50;99.90
30572;DHT22;17348;50.948;10.696;2022-11-20T18:12:20;1.60;99.90
30572;DHT22;17348;50.948;10.696;2022-11-20T18:15:22;1.60;99.90
30572;DHT22;17348;50.948;10.696;2022-11-20T18:18:25;1.70;99.90
30572;DHT22;17348;50.948;10.696;2022-11-20T18:21:28;1.70;99.90
30572;DHT22;17348;50.948;10.696;2022-11-20T18:24:33;1.70;99.90
30572;DHT22;17348;50.948;10.696;2022-11-20T18:27:36;1.70;99.90
30572;DHT22;17348;50.948;10.696;2022-11-20T18:30:39;1.80;99.90
30572;DHT22;17348;50.948;10.696;2022-11-20T18:33:41;1.80;99.90
30572;DHT22;17348;50.948;10.696;2022-11-20T18:36:44;1.90;99.90
30572;DHT22;17348;50.948;10.696;2022-11-20T18:39:48;1.90;99.90
30572;DHT22;17348;50.948;10.696;2022-11-20T18:42:50;2.00;99.90
30572;DHT22;17348;50.948;10.696;2022-11-20T18:46:09;2.00;99.90
30572;DHT22;17348;50.948;10.696;2022-11-20T18:49:12;2.00;99.90
30572;DHT22;17348;50.948;10.696;2022-11-20T18:52:14;2.00;99.90
30572;DHT22;17348;50.948;10.696;2022-11-20T18:55:18;2.00;99.90
30572;DHT22;17348;50.948;10.696;2022-11-20T18:58:20;2.10;99.90
30572;DHT22;17348;50.948;10.696;2022-11-20T19:01:22;2.10;99.90
30572;DHT22;17348;50.948;10.696;2022-11-20T19:04:27;2.10;99.90
30572;DHT22;17348;50.948;10.696;2022-11-20T19:07:30;2.10;99.90
30572;DHT22;17348;50.948;10.696;2022-11-20T19:10:33;2.00;99.90
30572;DHT22;17348;50.948;10.696;2022-11-20T19:13:38;2.00;99.90
30572;DHT22;17348;50.948;10.696;2022-11-20T19:16:40;2.00;99.90
30572;DHT22;17348;50.948;10.696;2022-11-20T19:19:44;2.00;99.90
30572;DHT22;17348;50.948;10.696;2022-11-20T19:22:49;2.00;99.90
30572;DHT22;17348;50.948;10.696;2022-11-20T19:25:57;2.00;99.90
30572;DHT22;17348;50.948;10.696;2022-11-20T19:29:00;2.00;99.90